Time;durP1;ratioP1;P1;durP2;ratioP2;P2;SDS_P1;SDS_P2;PMS_P1;PMS_P2;Temp;Humidity;BMP_temperature;BMP_pressure;BME280_temperature;BME280_humidity;BME280_pressure;Samples;Min_cycle;Max_cycle;Signal;HPM_P1;HPM_P2
2022/06/12 00:00:30;;;;;;;;;;;21.20;62.00;;;;;;5167711;27;19923;-51
2022/06/12 00:02:56;;;;;;;;;;;21.80;61.60;;;;;;5162526;27;19922;-47
2022/06/12 00:05:22;;;;;;;;;;;20.90;58.70;;;;;;5162556;27;19930;-48
2022/06/12 00:07:48;;;;;;;;;;;20.40;57.50;;;;;;5168009;27;19941;-48
2022/06/12 00:10:14;;;;;;;;;;;20.20;56.90;;;;;;5143845;27;19930;-48
2022/06/12 00:12:40;;;;;;;;;;;20.10;56.40;;;;;;5164361;27;19974;-48
2022/06/12 00:15:06;;;;;;;;;;;19.90;56.30;;;;;;5171170;27;19999;-47
2022/06/12 00:17:32;;;;;;;;;;;19.90;56.00;;;;;;5166129;27;19922;-46
2022/06/12 00:19:58;;;;;;;;;;;19.90;55.90;;;;;;5171846;27;19970;-47
2022/06/12 00:22:23;;;;;;;;;;;19.90;55.90;;;;;;5166078;27;19923;-47
2022/06/12 00:24:49;;;;;;;;;;;20.30;59.00;;;;;;5166292;27;20358;-47
2022/06/12 00:27:15;;;;;;;;;;;21.00;62.20;;;;;;5171361;27;19934;-49
2022/06/12 00:29:42;;;;;;;;;;;21.50;62.70;;;;;;5164309;27;20033;-52
2022/06/12 00:32:09;;;;;;;;;;;21.30;59.40;;;;;;5164602;27;20564;-52
2022/06/12 00:34:36;;;;;;;;;;;20.50;58.30;;;;;;5151005;27;19923;-47
2022/06/12 00:37:02;;;;;;;;;;;20.30;56.80;;;;;;5165923;27;19922;-50
2022/06/12 00:39:28;;;;;;;;;;;20.10;56.70;;;;;;5168776;27;19970;-54
2022/06/12 00:41:54;;;;;;;;;;;19.90;56.40;;;;;;5168831;27;20382;-48
2022/06/12 00:44:21;;;;;;;;;;;19.80;56.30;;;;;;5165827;27;20018;-49
2022/06/12 00:46:49;;;;;;;;;;;19.90;56.00;;;;;;5170862;27;19974;-48
2022/06/12 00:49:18;;;;;;;;;;;19.80;56.00;;;;;;5144624;27;19926;-48
2022/06/12 00:51:43;;;;;;;;;;;19.80;56.10;;;;;;5164753;27;20441;-46
2022/06/12 00:54:09;;;;;;;;;;;20.60;60.00;;;;;;5170850;27;20029;-46
2022/06/12 00:56:36;;;;;;;;;;;21.10;62.50;;;;;;5165488;27;19926;-50
2022/06/12 00:59:03;;;;;;;;;;;21.60;62.50;;;;;;5165544;27;20033;-50
2022/06/12 01:01:34;;;;;;;;;;;20.80;59.50;;;;;;5171041;27;20082;-44
2022/06/12 01:06:46;;;;;;;;;;;20.10;56.90;;;;;;5162083;27;19931;-47
2022/06/12 01:09:12;;;;;;;;;;;19.90;56.40;;;;;;5169574;27;19956;-44
2022/06/12 01:11:38;;;;;;;;;;;19.80;56.50;;;;;;5146412;27;19931;-46
2022/06/12 01:14:05;;;;;;;;;;;19.80;56.00;;;;;;5152008;27;19971;-46
2022/06/12 01:16:31;;;;;;;;;;;19.80;55.70;;;;;;5145830;27;20338;-45
2022/06/12 01:18:57;;;;;;;;;;;20.50;60.90;;;;;;5146273;27;20021;-45
2022/06/12 01:21:33;;;;;;;;;;;21.10;62.80;;;;;;5170343;27;19923;-50
2022/06/12 01:24:17;;;;;;;;;;;21.60;61.40;;;;;;5163783;27;20128;-48
2022/06/12 01:26:55;;;;;;;;;;;20.50;58.90;;;;;;5163172;27;19924;-49
2022/06/12 01:29:28;;;;;;;;;;;20.20;57.30;;;;;;5169960;27;20353;-45
2022/06/12 01:31:59;;;;;;;;;;;19.70;57.00;;;;;;5146235;27;19923;-45
2022/06/12 01:34:44;;;;;;;;;;;19.90;56.20;;;;;;5146543;27;19990;-47
2022/06/12 01:37:17;;;;;;;;;;;19.80;56.00;;;;;;5170512;27;20010;-46
2022/06/12 01:39:58;;;;;;;;;;;19.80;55.60;;;;;;5145950;27;20433;-47
2022/06/12 01:42:30;;;;;;;;;;;20.50;61.00;;;;;;5163480;27;20083;-47
2022/06/12 01:45:01;;;;;;;;;;;21.20;62.60;;;;;;5149805;27;20283;-46
2022/06/12 01:47:29;;;;;;;;;;;21.60;61.50;;;;;;5164063;27;19931;-47
2022/06/12 01:50:12;;;;;;;;;;;20.30;59.90;;;;;;5143907;27;19942;-47
2022/06/12 01:52:47;;;;;;;;;;;20.10;57.40;;;;;;5170108;27;19926;-48
2022/06/12 01:55:23;;;;;;;;;;;20.20;56.00;;;;;;5145795;27;20415;-49
2022/06/12 01:58:00;;;;;;;;;;;19.90;55.80;;;;;;5145552;27;19933;-45
2022/06/12 02:00:26;;;;;;;;;;;19.70;55.80;;;;;;5150606;27;19929;-48
2022/06/12 02:02:54;;;;;;;;;;;20.60;60.80;;;;;;5143250;27;19923;-46
2022/06/12 02:05:25;;;;;;;;;;;21.20;62.70;;;;;;5144711;27;19933;-48
2022/06/12 02:07:53;;;;;;;;;;;21.40;62.70;;;;;;5169365;27;19931;-46
2022/06/12 02:10:23;;;;;;;;;;;20.60;58.90;;;;;;5163908;27;19974;-48
2022/06/12 02:13:13;;;;;;;;;;;20.10;57.00;;;;;;5163832;27;19923;-47
2022/06/12 02:15:42;;;;;;;;;;;19.90;56.10;;;;;;5150458;27;19927;-46
2022/06/12 02:18:10;;;;;;;;;;;19.80;55.90;;;;;;5163830;27;20342;-46
2022/06/12 02:20:37;;;;;;;;;;;19.70;55.50;;;;;;5142852;27;19927;-48
2022/06/12 02:23:04;;;;;;;;;;;20.40;60.50;;;;;;5168248;27;19929;-46
2022/06/12 02:25:31;;;;;;;;;;;21.00;62.60;;;;;;5144940;27;20030;-49
2022/06/12 02:27:58;;;;;;;;;;;21.60;62.00;;;;;;5159934;27;19922;-54
2022/06/12 02:30:26;;;;;;;;;;;20.60;59.20;;;;;;5169147;27;19922;-46
2022/06/12 02:32:57;;;;;;;;;;;20.20;57.40;;;;;;5163267;27;21410;-46
2022/06/12 02:35:41;;;;;;;;;;;20.00;56.30;;;;;;5169079;27;19923;-47
2022/06/12 02:38:12;;;;;;;;;;;19.80;55.80;;;;;;5167357;27;19923;-49
2022/06/12 02:40:39;;;;;;;;;;;19.80;55.30;;;;;;5143381;27;19927;-49
2022/06/12 02:43:07;;;;;;;;;;;20.20;58.40;;;;;;5168260;27;19927;-47
2022/06/12 02:45:34;;;;;;;;;;;20.90;61.70;;;;;;5144525;27;19922;-49
2022/06/12 02:48:00;;;;;;;;;;;21.30;62.10;;;;;;5163398;27;19986;-45
2022/06/12 02:50:27;;;;;;;;;;;20.70;59.40;;;;;;5168862;27;19923;-46
2022/06/12 02:53:02;;;;;;;;;;;20.00;57.60;;;;;;5144833;27;19927;-45
2022/06/12 02:55:37;;;;;;;;;;;19.80;56.40;;;;;;5144517;27;19929;-47
2022/06/12 02:58:09;;;;;;;;;;;19.50;56.00;;;;;;5148306;27;20311;-45
2022/06/12 03:00:40;;;;;;;;;;;19.70;55.20;;;;;;5163079;27;20013;-47
2022/06/12 03:03:06;;;;;;;;;;;20.40;60.30;;;;;;5163072;27;19923;-46
2022/06/12 03:05:33;;;;;;;;;;;21.10;62.00;;;;;;5168773;27;19922;-50
2022/06/12 03:08:04;;;;;;;;;;;21.50;61.80;;;;;;5163225;27;19927;-47
2022/06/12 03:10:34;;;;;;;;;;;20.30;58.40;;;;;;5146216;27;19933;-53
2022/06/12 03:13:00;;;;;;;;;;;19.90;57.50;;;;;;5168669;27;19926;-46
2022/06/12 03:15:29;;;;;;;;;;;19.80;56.40;;;;;;5161235;27;19923;-52
2022/06/12 03:17:56;;;;;;;;;;;19.60;55.50;;;;;;5167485;27;19923;-48
2022/06/12 03:20:22;;;;;;;;;;;19.90;56.20;;;;;;5163512;27;19926;-45
2022/06/12 03:22:52;;;;;;;;;;;20.60;61.00;;;;;;5163091;27;19923;-47
2022/06/12 03:25:22;;;;;;;;;;;21.30;62.00;;;;;;5147681;27;19930;-45
2022/06/12 03:27:54;;;;;;;;;;;21.20;59.90;;;;;;5142476;27;19923;-45
2022/06/12 03:30:26;;;;;;;;;;;20.30;58.40;;;;;;5142437;27;20017;-45
2022/06/12 03:33:04;;;;;;;;;;;19.70;57.00;;;;;;5167001;27;20500;-46
2022/06/12 03:35:35;;;;;;;;;;;19.80;55.60;;;;;;5161984;27;19927;-47
2022/06/12 03:38:02;;;;;;;;;;;19.80;56.50;;;;;;5145496;27;20009;-46
2022/06/12 03:40:33;;;;;;;;;;;20.60;61.30;;;;;;5149861;27;20005;-46
2022/06/12 03:43:13;;;;;;;;;;;21.30;61.70;;;;;;5162808;27;20953;-45
2022/06/12 03:45:39;;;;;;;;;;;20.80;59.90;;;;;;5164893;27;20426;-44
2022/06/12 03:48:15;;;;;;;;;;;20.20;57.20;;;;;;5168703;27;19933;-45
2022/06/12 03:50:43;;;;;;;;;;;19.80;56.50;;;;;;5146827;27;19933;-52
2022/06/12 03:53:11;;;;;;;;;;;19.60;56.00;;;;;;5145547;27;19975;-48
2022/06/12 03:58:26;;;;;;;;;;;20.40;60.10;;;;;;5152328;27;20289;-47
2022/06/12 04:00:52;;;;;;;;;;;21.20;61.90;;;;;;5146529;27;19966;-51
2022/06/12 04:03:21;;;;;;;;;;;21.40;61.20;;;;;;5172237;27;19966;-45
2022/06/12 04:05:54;;;;;;;;;;;20.60;57.80;;;;;;5167028;27;19941;-46
2022/06/12 04:08:21;;;;;;;;;;;19.90;57.40;;;;;;5153373;27;19949;-44
2022/06/12 04:10:47;;;;;;;;;;;19.80;55.80;;;;;;5146709;27;19931;-47
2022/06/12 04:13:13;;;;;;;;;;;19.90;54.80;;;;;;5166059;27;20361;-44
2022/06/12 04:15:47;;;;;;;;;;;20.00;56.90;;;;;;5153539;27;20009;-44
2022/06/12 04:18:13;;;;;;;;;;;20.70;61.10;;;;;;5148856;27;20366;-46
2022/06/12 04:20:48;;;;;;;;;;;21.30;61.60;;;;;;5166934;27;20160;-45
2022/06/12 04:23:20;;;;;;;;;;;20.90;59.40;;;;;;5171988;27;20005;-44
2022/06/12 04:25:50;;;;;;;;;;;20.10;57.20;;;;;;5166640;27;19929;-44
2022/06/12 04:28:26;;;;;;;;;;;19.80;56.40;;;;;;5165287;27;20186;-44
2022/06/12 04:30:53;;;;;;;;;;;19.80;55.40;;;;;;5151796;27;19933;-46
2022/06/12 04:33:33;;;;;;;;;;;20.20;58.10;;;;;;5166655;27;20013;-47
2022/06/12 04:36:00;;;;;;;;;;;20.80;61.60;;;;;;5166365;27;19929;-48
2022/06/12 04:38:26;;;;;;;;;;;21.40;61.30;;;;;;5171407;27;19929;-45
2022/06/12 04:40:52;;;;;;;;;;;20.60;59.00;;;;;;5165850;27;19922;-45
2022/06/12 04:43:17;;;;;;;;;;;20.00;57.00;;;;;;5169730;27;20365;-53
2022/06/12 04:45:43;;;;;;;;;;;19.80;56.30;;;;;;5167520;27;20381;-46
2022/06/12 04:48:11;;;;;;;;;;;19.80;54.90;;;;;;5144696;27;19927;-45
2022/06/12 04:50:37;;;;;;;;;;;19.80;55.80;;;;;;5170438;27;19923;-46
2022/06/12 04:53:03;;;;;;;;;;;20.60;60.60;;;;;;5165095;27;20339;-46
2022/06/12 04:55:32;;;;;;;;;;;21.20;61.80;;;;;;5165434;27;19926;-44
2022/06/12 04:57:58;;;;;;;;;;;21.30;59.70;;;;;;5170666;27;19922;-44
2022/06/12 05:00:24;;;;;;;;;;;20.30;58.60;;;;;;5165459;27;19926;-44
2022/06/12 05:02:49;;;;;;;;;;;19.90;57.10;;;;;;5165611;27;19947;-44
2022/06/12 05:05:15;;;;;;;;;;;20.00;55.50;;;;;;5169170;27;19927;-44
2022/06/12 05:07:41;;;;;;;;;;;19.80;55.10;;;;;;5163924;27;20290;-44
2022/06/12 05:10:07;;;;;;;;;;;19.80;56.10;;;;;;5170546;27;19948;-44
2022/06/12 05:12:33;;;;;;;;;;;20.60;60.60;;;;;;5145002;27;19927;-45
2022/06/12 05:14:59;;;;;;;;;;;21.20;61.80;;;;;;5165222;27;19934;-44
2022/06/12 05:17:25;;;;;;;;;;;21.60;61.00;;;;;;5151671;27;19931;-45
2022/06/12 05:19:51;;;;;;;;;;;20.40;58.80;;;;;;5164865;27;19947;-44
2022/06/12 05:22:21;;;;;;;;;;;20.10;57.30;;;;;;5164422;27;19926;-47
2022/06/12 05:24:47;;;;;;;;;;;20.10;55.50;;;;;;5168017;27;19939;-45
2022/06/12 05:27:14;;;;;;;;;;;19.80;55.90;;;;;;5164339;27;20275;-46
2022/06/12 05:29:40;;;;;;;;;;;19.80;55.10;;;;;;5151582;27;20025;-48
2022/06/12 05:32:06;;;;;;;;;;;20.30;59.40;;;;;;5146475;27;19930;-44
2022/06/12 05:34:33;;;;;;;;;;;21.00;62.20;;;;;;5165025;27;20013;-44
2022/06/12 05:36:59;;;;;;;;;;;21.40;62.10;;;;;;5170687;27;19922;-44
2022/06/12 05:39:25;;;;;;;;;;;20.50;59.30;;;;;;5164733;27;20267;-44
2022/06/12 05:41:51;;;;;;;;;;;19.90;57.80;;;;;;5163360;27;19922;-46
2022/06/12 05:44:16;;;;;;;;;;;19.90;56.50;;;;;;5168566;27;20021;-45
2022/06/12 05:46:43;;;;;;;;;;;19.80;56.00;;;;;;5164125;27;19956;-44
2022/06/12 05:49:09;;;;;;;;;;;19.80;55.50;;;;;;5166797;27;19927;-53
2022/06/12 05:51:34;;;;;;;;;;;20.20;58.40;;;;;;5167682;27;19934;-44
2022/06/12 05:54:00;;;;;;;;;;;20.90;62.10;;;;;;5164459;27;19930;-45
2022/06/12 05:56:26;;;;;;;;;;;21.40;62.70;;;;;;5170015;27;19923;-45
2022/06/12 05:58:52;;;;;;;;;;;21.00;60.40;;;;;;5164259;27;20359;-44
2022/06/12 06:01:19;;;;;;;;;;;20.20;58.80;;;;;;5161866;27;20228;-44
2022/06/12 06:03:45;;;;;;;;;;;20.00;57.60;;;;;;5168881;27;19927;-45
2022/06/12 06:06:13;;;;;;;;;;;19.80;56.60;;;;;;5163728;27;19929;-43
2022/06/12 06:08:39;;;;;;;;;;;19.90;55.60;;;;;;5143233;27;19923;-44
2022/06/12 06:11:06;;;;;;;;;;;19.80;55.60;;;;;;5169728;27;19930;-44
2022/06/12 06:13:32;;;;;;;;;;;19.80;55.70;;;;;;5164159;27;19935;-43
2022/06/12 06:15:58;;;;;;;;;;;20.60;61.00;;;;;;5169530;27;20462;-46
2022/06/12 06:18:24;;;;;;;;;;;21.20;63.00;;;;;;5162485;27;19947;-44
2022/06/12 06:20:50;;;;;;;;;;;21.40;62.00;;;;;;5143952;27;19927;-44
2022/06/12 06:23:16;;;;;;;;;;;20.30;60.20;;;;;;5168866;27;20325;-45
2022/06/12 06:25:42;;;;;;;;;;;20.00;58.50;;;;;;5163669;27;19974;-45
2022/06/12 06:28:08;;;;;;;;;;;20.00;56.90;;;;;;5163883;27;19923;-48
2022/06/12 06:30:34;;;;;;;;;;;20.00;56.00;;;;;;5169233;27;20017;-46
2022/06/12 06:33:00;;;;;;;;;;;19.80;54.80;;;;;;5163835;27;20219;-49
2022/06/12 06:35:26;;;;;;;;;;;19.70;54.90;;;;;;5169177;27;20003;-49
2022/06/12 06:37:52;;;;;;;;;;;20.40;60.40;;;;;;5161133;27;20064;-46
2022/06/12 06:40:18;;;;;;;;;;;21.10;62.20;;;;;;5162451;27;20009;-46
2022/06/12 06:42:43;;;;;;;;;;;21.70;61.40;;;;;;5168689;27;19929;-46
2022/06/12 06:47:57;;;;;;;;;;;20.40;56.90;;;;;;5163311;27;19927;-46
2022/06/12 06:50:23;;;;;;;;;;;20.00;55.50;;;;;;5169058;27;19970;-46
2022/06/12 06:52:48;;;;;;;;;;;19.90;54.60;;;;;;5163370;27;20309;-47
2022/06/12 06:55:14;;;;;;;;;;;19.80;54.20;;;;;;5161759;27;20351;-47
2022/06/12 06:57:41;;;;;;;;;;;20.30;60.00;;;;;;5167252;27;19976;-49
2022/06/12 07:00:08;;;;;;;;;;;21.10;61.20;;;;;;5162670;27;19926;-47
2022/06/12 07:02:33;;;;;;;;;;;21.70;60.70;;;;;;5168608;27;19952;-46
2022/06/12 07:04:59;;;;;;;;;;;21.00;58.40;;;;;;5163221;27;19923;-47
2022/06/12 07:07:25;;;;;;;;;;;20.50;56.80;;;;;;5163146;27;20409;-45
2022/06/12 07:09:51;;;;;;;;;;;20.20;55.20;;;;;;5168463;27;19922;-48
2022/06/12 07:12:16;;;;;;;;;;;19.80;54.70;;;;;;5162977;27;19934;-47
2022/06/12 07:14:42;;;;;;;;;;;20.10;55.70;;;;;;5142236;27;19938;-50
2022/06/12 07:17:08;;;;;;;;;;;20.70;60.90;;;;;;5167508;27;19927;-47
2022/06/12 07:19:34;;;;;;;;;;;21.40;60.90;;;;;;5162645;27;20270;-45
2022/06/12 07:21:59;;;;;;;;;;;21.50;58.80;;;;;;5166742;27;20286;-57
2022/06/12 07:24:25;;;;;;;;;;;20.60;57.10;;;;;;5164743;27;19925;-45
2022/06/12 07:26:51;;;;;;;;;;;20.30;55.50;;;;;;5163012;27;19979;-45
2022/06/12 07:29:18;;;;;;;;;;;20.00;54.90;;;;;;5149763;27;19927;-45
2022/06/12 07:31:43;;;;;;;;;;;19.80;54.10;;;;;;5161557;27;20446;-46
2022/06/12 07:34:12;;;;;;;;;;;20.50;59.40;;;;;;5161057;27;19926;-50
2022/06/12 07:36:38;;;;;;;;;;;21.20;60.80;;;;;;5167650;27;20010;-49
2022/06/12 07:39:05;;;;;;;;;;;21.80;59.20;;;;;;5142729;27;20006;-46
2022/06/12 07:41:30;;;;;;;;;;;20.80;57.50;;;;;;5142599;27;20006;-52
2022/06/12 07:43:56;;;;;;;;;;;20.30;56.10;;;;;;5168000;27;19922;-46
2022/06/12 07:46:22;;;;;;;;;;;20.10;55.00;;;;;;5162609;27;19930;-46
2022/06/12 07:48:48;;;;;;;;;;;20.00;54.10;;;;;;5168086;27;20270;-49
2022/06/12 07:51:15;;;;;;;;;;;19.80;53.60;;;;;;5160400;27;19923;-50
2022/06/12 07:53:41;;;;;;;;;;;20.30;58.40;;;;;;5142856;27;19929;-48
2022/06/12 07:56:07;;;;;;;;;;;21.00;60.50;;;;;;5167753;27;19923;-47
2022/06/12 07:58:33;;;;;;;;;;;21.70;59.80;;;;;;5162535;27;20278;-48
2022/06/12 08:00:59;;;;;;;;;;;21.10;58.10;;;;;;5162320;27;20002;-48
2022/06/12 08:03:25;;;;;;;;;;;20.60;56.40;;;;;;5167991;27;19927;-45
2022/06/12 08:05:51;;;;;;;;;;;20.20;55.40;;;;;;5162268;27;19923;-47
2022/06/12 08:08:17;;;;;;;;;;;20.20;53.90;;;;;;5166793;27;19923;-45
2022/06/12 08:10:43;;;;;;;;;;;19.70;53.90;;;;;;5160442;27;20025;-46
2022/06/12 08:13:10;;;;;;;;;;;20.00;56.00;;;;;;5161845;27;19929;-46
2022/06/12 08:15:36;;;;;;;;;;;20.80;60.30;;;;;;5167697;27;20426;-51
2022/06/12 08:18:04;;;;;;;;;;;21.50;60.20;;;;;;5162640;27;19929;-45
2022/06/12 08:20:30;;;;;;;;;;;21.60;58.30;;;;;;5162385;27;20020;-50
2022/06/12 08:22:55;;;;;;;;;;;20.70;57.00;;;;;;5168052;27;20334;-44
2022/06/12 08:25:23;;;;;;;;;;;20.40;55.60;;;;;;5161712;27;21282;-45
2022/06/12 08:27:49;;;;;;;;;;;20.10;54.80;;;;;;5163789;27;19923;-56
2022/06/12 08:30:15;;;;;;;;;;;20.00;53.60;;;;;;5163488;27;19923;-47
2022/06/12 08:32:41;;;;;;;;;;;19.80;53.40;;;;;;5165217;27;19926;-51
2022/06/12 08:35:09;;;;;;;;;;;20.30;58.80;;;;;;5171805;27;20118;-48
2022/06/12 08:37:36;;;;;;;;;;;21.10;60.60;;;;;;5145909;27;19923;-47
2022/06/12 08:40:03;;;;;;;;;;;21.80;59.40;;;;;;5147327;27;19928;-45
2022/06/12 08:42:32;;;;;;;;;;;21.00;57.30;;;;;;5171278;27;20021;-45
2022/06/12 08:45:07;;;;;;;;;;;20.60;55.60;;;;;;5164811;27;19923;-46
2022/06/12 08:47:35;;;;;;;;;;;20.20;54.90;;;;;;5145711;27;20280;-44
2022/06/12 08:50:19;;;;;;;;;;;20.00;54.30;;;;;;5152232;27;19953;-48
2022/06/12 08:52:50;;;;;;;;;;;19.90;53.50;;;;;;5146929;27;19969;-47
2022/06/12 08:55:36;;;;;;;;;;;20.50;59.20;;;;;;5146663;27;20556;-46
2022/06/12 08:58:05;;;;;;;;;;;21.30;60.00;;;;;;5152649;27;19948;-46
2022/06/12 09:00:32;;;;;;;;;;;21.80;58.30;;;;;;5165710;27;20382;-46
2022/06/12 09:02:57;;;;;;;;;;;20.90;56.80;;;;;;5165239;27;20108;-48
2022/06/12 09:05:26;;;;;;;;;;;20.60;55.20;;;;;;5168566;27;19933;-48
2022/06/12 09:07:52;;;;;;;;;;;20.20;54.50;;;;;;5146007;27;19922;-45
2022/06/12 09:10:28;;;;;;;;;;;20.10;53.30;;;;;;5170530;27;20412;-46
2022/06/12 09:12:57;;;;;;;;;;;19.80;54.90;;;;;;5169454;27;20296;-46
2022/06/12 09:15:23;;;;;;;;;;;20.70;59.40;;;;;;5146952;27;20036;-46
2022/06/12 09:17:53;;;;;;;;;;;21.50;59.30;;;;;;5170772;27;20340;-47
2022/06/12 09:20:21;;;;;;;;;;;21.50;57.30;;;;;;5165234;27;19991;-46
2022/06/12 09:23:07;;;;;;;;;;;20.80;56.20;;;;;;5162878;27;19974;-46
2022/06/12 09:25:45;;;;;;;;;;;20.30;55.10;;;;;;5168980;27;19970;-45
2022/06/12 09:28:24;;;;;;;;;;;20.20;53.80;;;;;;5146484;27;19927;-46
2022/06/12 09:30:53;;;;;;;;;;;20.20;53.00;;;;;;5165055;27;20297;-46
2022/06/12 09:33:23;;;;;;;;;;;20.10;54.30;;;;;;5152254;27;19986;-45
2022/06/12 09:36:07;;;;;;;;;;;20.80;59.00;;;;;;5165254;27;20301;-45
2022/06/12 09:38:40;;;;;;;;;;;21.50;58.60;;;;;;5164921;27;20119;-46
2022/06/12 09:41:09;;;;;;;;;;;21.40;56.60;;;;;;5149532;27;20358;-48
2022/06/12 09:43:34;;;;;;;;;;;20.60;55.30;;;;;;5163576;27;19922;-45
2022/06/12 09:46:03;;;;;;;;;;;20.40;54.40;;;;;;5164541;27;19946;-46
2022/06/12 09:48:44;;;;;;;;;;;20.30;53.40;;;;;;5170094;27;19923;-50
2022/06/12 09:51:22;;;;;;;;;;;20.00;52.70;;;;;;5164771;27;20033;-47
2022/06/12 09:53:52;;;;;;;;;;;19.90;53.80;;;;;;5164735;27;19923;-45
2022/06/12 09:56:24;;;;;;;;;;;20.70;58.30;;;;;;5151377;27;20030;-46
2022/06/12 09:58:52;;;;;;;;;;;21.40;58.30;;;;;;5162898;27;20013;-49
2022/06/12 10:01:22;;;;;;;;;;;21.70;56.40;;;;;;5162659;27;20021;-44
2022/06/12 10:03:50;;;;;;;;;;;20.80;55.70;;;;;;5149879;27;19923;-45
2022/06/12 10:06:22;;;;;;;;;;;20.50;54.10;;;;;;5144045;27;19927;-49
2022/06/12 10:08:52;;;;;;;;;;;20.10;53.90;;;;;;5164230;27;19962;-49
2022/06/12 10:11:18;;;;;;;;;;;20.20;52.90;;;;;;5169784;27;20304;-45
2022/06/12 10:13:47;;;;;;;;;;;20.10;52.40;;;;;;5164125;27;19922;-45
2022/06/12 10:16:15;;;;;;;;;;;20.50;57.70;;;;;;5148792;27;19926;-56
2022/06/12 10:18:51;;;;;;;;;;;21.30;58.10;;;;;;5165117;27;19923;-45
2022/06/12 10:21:18;;;;;;;;;;;21.80;56.30;;;;;;5145019;27;20369;-45
2022/06/12 10:23:44;;;;;;;;;;;20.90;55.50;;;;;;5169188;27;19926;-45
2022/06/12 10:26:15;;;;;;;;;;;20.50;54.50;;;;;;5163853;27;19959;-45
2022/06/12 10:28:41;;;;;;;;;;;20.20;53.50;;;;;;5163821;27;19988;-45
2022/06/12 10:31:15;;;;;;;;;;;20.10;52.90;;;;;;5150031;27;19962;-46
2022/06/12 10:33:41;;;;;;;;;;;20.00;52.60;;;;;;5145063;27;19922;-46
2022/06/12 10:36:26;;;;;;;;;;;20.60;57.70;;;;;;5161685;27;20298;-47
2022/06/12 10:39:10;;;;;;;;;;;21.40;57.80;;;;;;5167927;27;19927;-46
2022/06/12 10:41:48;;;;;;;;;;;21.50;56.10;;;;;;5163112;27;19986;-45
2022/06/12 10:44:29;;;;;;;;;;;20.60;55.20;;;;;;5142641;27;20014;-51
2022/06/12 10:46:55;;;;;;;;;;;20.60;53.70;;;;;;5168897;27;20390;-45
2022/06/12 10:49:24;;;;;;;;;;;20.20;53.30;;;;;;5163580;27;19923;-47
2022/06/12 10:51:51;;;;;;;;;;;20.00;53.00;;;;;;5163333;27;19929;-48
2022/06/12 10:54:17;;;;;;;;;;;20.00;52.70;;;;;;5146060;27;19927;-46
2022/06/12 10:56:45;;;;;;;;;;;20.20;55.50;;;;;;5161756;27;19961;-47
2022/06/12 10:59:14;;;;;;;;;;;21.00;57.70;;;;;;5163034;27;20113;-45
2022/06/12 11:01:49;;;;;;;;;;;21.70;57.20;;;;;;5168464;27;19975;-45
2022/06/12 11:04:20;;;;;;;;;;;21.30;56.10;;;;;;5163331;27;20421;-47
2022/06/12 11:06:56;;;;;;;;;;;20.70;55.00;;;;;;5163274;27;19923;-45
2022/06/12 11:09:30;;;;;;;;;;;20.30;54.20;;;;;;5148574;27;20013;-49
2022/06/12 11:11:58;;;;;;;;;;;20.30;53.40;;;;;;5162027;27;19927;-44
2022/06/12 11:14:40;;;;;;;;;;;20.20;52.60;;;;;;5161500;27;19937;-51
2022/06/12 11:17:09;;;;;;;;;;;19.90;53.30;;;;;;5149321;27;20400;-45
2022/06/12 11:19:41;;;;;;;;;;;20.80;57.70;;;;;;5144285;27;20289;-46
2022/06/12 11:22:06;;;;;;;;;;;21.50;57.60;;;;;;5163814;27;20058;-52
2022/06/12 11:24:36;;;;;;;;;;;21.60;55.60;;;;;;5167638;27;19922;-46
2022/06/12 11:27:07;;;;;;;;;;;20.80;55.00;;;;;;5144253;27;19981;-45
2022/06/12 11:29:36;;;;;;;;;;;20.40;53.90;;;;;;5168328;27;19923;-47
2022/06/12 11:32:07;;;;;;;;;;;20.20;53.70;;;;;;5160330;27;20326;-48
2022/06/12 11:34:35;;;;;;;;;;;20.30;52.50;;;;;;5162075;27;19963;-44
2022/06/12 11:37:20;;;;;;;;;;;20.10;52.30;;;;;;5167851;27;20053;-47
2022/06/12 11:40:01;;;;;;;;;;;20.20;51.80;;;;;;5162544;27;20021;-45
2022/06/12 11:42:37;;;;;;;;;;;19.80;51.90;;;;;;5162573;27;19927;-44
2022/06/12 11:45:06;;;;;;;;;;;19.80;51.80;;;;;;5168452;27;20006;-46
2022/06/12 11:47:32;;;;;;;;;;;20.30;56.10;;;;;;5143702;27;20382;-47
2022/06/12 11:50:05;;;;;;;;;;;21.20;57.00;;;;;;5160420;27;20008;-46
2022/06/12 11:52:35;;;;;;;;;;;21.80;56.30;;;;;;5148414;27;19930;-45
2022/06/12 11:55:20;;;;;;;;;;;21.50;55.20;;;;;;5143012;27;20100;-46
2022/06/12 11:57:49;;;;;;;;;;;20.80;54.50;;;;;;5162680;27;19923;-45
2022/06/12 12:00:19;;;;;;;;;;;20.40;53.70;;;;;;5167987;27;20059;-45
2022/06/12 12:02:44;;;;;;;;;;;20.30;53.20;;;;;;5162677;27;20022;-44
2022/06/12 12:05:10;;;;;;;;;;;20.30;52.30;;;;;;5162374;27;19931;-46
2022/06/12 12:07:55;;;;;;;;;;;20.30;51.80;;;;;;5169416;27;19923;-47
2022/06/12 12:10:23;;;;;;;;;;;20.40;55.60;;;;;;5165232;27;19933;-46
2022/06/12 12:12:53;;;;;;;;;;;21.30;56.60;;;;;;5166276;27;19926;-45
2022/06/12 12:15:20;;;;;;;;;;;21.80;55.20;;;;;;5136060;27;19940;-46
2022/06/12 12:17:46;;;;;;;;;;;21.10;54.50;;;;;;5147735;27;20284;-45
2022/06/12 12:20:41;;;;;;;;;;;20.60;53.90;;;;;;5166745;27;19923;-52
2022/06/12 12:23:08;;;;;;;;;;;20.30;53.20;;;;;;5149066;27;20300;-44
2022/06/12 12:25:36;;;;;;;;;;;20.30;52.30;;;;;;5146537;27;19937;-46
2022/06/12 12:28:06;;;;;;;;;;;20.00;52.30;;;;;;5145200;27;19966;-46
2022/06/12 12:30:33;;;;;;;;;;;20.10;51.60;;;;;;5152630;27;20017;-48
2022/06/12 12:33:00;;;;;;;;;;;20.10;51.60;;;;;;5166017;27;19936;-50
2022/06/12 12:41:30;;;;;;;;;;;20.90;56.60;;;;;;5165995;27;19958;-45
2022/06/12 12:43:57;;;;;;;;;;;21.60;56.40;;;;;;5059166;28;20841;-49
2022/06/12 12:46:24;;;;;;;;;;;21.50;54.90;;;;;;5147984;27;20067;-45
2022/06/12 12:48:50;;;;;;;;;;;20.80;54.50;;;;;;5165367;27;20180;-48
2022/06/12 12:51:26;;;;;;;;;;;20.50;53.20;;;;;;5165415;27;20002;-45
2022/06/12 12:53:52;;;;;;;;;;;20.20;53.20;;;;;;5171165;27;19939;-46
2022/06/12 12:56:26;;;;;;;;;;;20.20;52.20;;;;;;5146895;27;19923;-45
2022/06/12 12:59:03;;;;;;;;;;;20.00;52.30;;;;;;5166940;27;19931;-53
2022/06/12 13:01:36;;;;;;;;;;;20.50;56.00;;;;;;5170668;27;20021;-45
2022/06/12 13:04:12;;;;;;;;;;;21.40;56.30;;;;;;5163197;27;20015;-46
2022/06/12 13:07:10;;;;;;;;;;;21.80;55.10;;;;;;5165794;27;20009;-54
2022/06/12 13:09:54;;;;;;;;;;;20.90;54.60;;;;;;5112951;27;19974;-46
2022/06/12 13:12:23;;;;;;;;;;;20.30;53.80;;;;;;5165373;27;20335;-45
2022/06/12 13:14:55;;;;;;;;;;;20.30;52.60;;;;;;5165405;27;19929;-46
2022/06/12 13:17:23;;;;;;;;;;;20.20;52.40;;;;;;5170495;27;20371;-46
2022/06/12 13:20:01;;;;;;;;;;;20.00;52.10;;;;;;5165072;27;19926;-47
2022/06/12 13:22:27;;;;;;;;;;;20.30;55.50;;;;;;5162784;27;20330;-48
2022/06/12 13:24:56;;;;;;;;;;;21.20;57.00;;;;;;5169812;27;19922;-46
2022/06/12 13:27:26;;;;;;;;;;;21.90;55.90;;;;;;5164689;27;19933;-45
2022/06/12 13:29:52;;;;;;;;;;;21.00;54.90;;;;;;5165840;27;19923;-57
2022/06/12 13:32:19;;;;;;;;;;;20.50;53.90;;;;;;5170536;27;20010;-43
2022/06/12 13:34:52;;;;;;;;;;;20.40;53.10;;;;;;5165302;27;19923;-45
2022/06/12 13:37:18;;;;;;;;;;;20.30;52.70;;;;;;5170545;27;20370;-45
2022/06/12 13:39:45;;;;;;;;;;;20.10;52.50;;;;;;5144054;27;19923;-48
2022/06/12 13:42:12;;;;;;;;;;;19.90;52.40;;;;;;5163371;27;19922;-48
2022/06/12 13:44:38;;;;;;;;;;;19.90;52.10;;;;;;5150281;27;20340;-47
2022/06/12 13:47:19;;;;;;;;;;;19.90;51.90;;;;;;5164580;27;19927;-46
2022/06/12 13:49:53;;;;;;;;;;;19.80;53.00;;;;;;5164650;27;20354;-45
2022/06/12 13:52:37;;;;;;;;;;;20.70;56.80;;;;;;5149732;27;20273;-45
2022/06/12 13:55:03;;;;;;;;;;;21.40;56.90;;;;;;5164637;27;19942;-46
2022/06/12 13:57:30;;;;;;;;;;;21.80;55.70;;;;;;5144445;27;19930;-48
2022/06/12 13:59:58;;;;;;;;;;;20.90;55.30;;;;;;5149764;27;19933;-45
2022/06/12 14:02:25;;;;;;;;;;;20.60;54.20;;;;;;5163840;27;20021;-47
2022/06/12 14:04:51;;;;;;;;;;;20.50;53.30;;;;;;5164267;27;20196;-47
2022/06/12 14:07:20;;;;;;;;;;;20.20;53.00;;;;;;5169633;27;19927;-48
2022/06/12 14:09:46;;;;;;;;;;;20.10;52.50;;;;;;5164376;27;19977;-46
2022/06/12 14:12:12;;;;;;;;;;;20.10;51.80;;;;;;5169741;27;20378;-44
2022/06/12 14:14:40;;;;;;;;;;;20.00;51.80;;;;;;5144058;27;20013;-47
2022/06/12 14:17:16;;;;;;;;;;;19.90;51.80;;;;;;5143205;27;19929;-46
2022/06/12 14:19:42;;;;;;;;;;;19.90;51.90;;;;;;5168752;27;19929;-46
2022/06/12 14:22:17;;;;;;;;;;;20.50;57.10;;;;;;5163945;27;19923;-46
2022/06/12 14:24:43;;;;;;;;;;;21.30;57.30;;;;;;5163819;27;19933;-45
2022/06/12 14:27:31;;;;;;;;;;;21.90;56.30;;;;;;5169408;27;20013;-47
2022/06/12 14:29:59;;;;;;;;;;;21.30;55.20;;;;;;5163422;27;19945;-45
2022/06/12 14:32:26;;;;;;;;;;;20.60;54.70;;;;;;5163818;27;19923;-46
2022/06/12 14:34:58;;;;;;;;;;;20.50;53.70;;;;;;5167448;27;19923;-50
2022/06/12 14:37:44;;;;;;;;;;;20.30;53.10;;;;;;5162667;27;20326;-44
2022/06/12 14:40:22;;;;;;;;;;;20.10;52.80;;;;;;5159949;27;20374;-48
2022/06/12 14:43:06;;;;;;;;;;;20.00;52.70;;;;;;5169009;27;20297;-46